createdAt,value
2019-03-10T00:00:31.877Z,14.43
2019-03-10T00:03:01.265Z,14.70
2019-03-10T00:05:30.650Z,12.70
2019-03-10T00:08:00.676Z,13.67
2019-03-10T00:10:29.981Z,11.27
2019-03-10T00:12:59.434Z,11.97
2019-03-10T00:15:29.168Z,8.97
2019-03-10T00:17:58.543Z,10.07
2019-03-10T00:20:27.886Z,14.30
2019-03-10T00:22:57.248Z,12.17
2019-03-10T00:25:26.738Z,14.43
2019-03-10T00:27:56.163Z,14.33
2019-03-10T00:30:25.495Z,10.67
2019-03-10T00:32:54.882Z,12.80
2019-03-10T00:35:24.194Z,14.87
2019-03-10T00:37:53.502Z,11.57
2019-03-10T00:41:03.130Z,15.20
2019-03-10T00:43:59.346Z,14.67
2019-03-10T00:47:04.514Z,13.03
2019-03-10T00:50:33.042Z,9.13
2019-03-10T00:53:02.933Z,11.87
2019-03-10T00:55:32.670Z,7.60
2019-03-10T00:58:02.019Z,8.87
2019-03-10T01:00:31.362Z,10.93
2019-03-10T01:03:00.781Z,4.77
2019-03-10T01:05:30.223Z,4.00
2019-03-10T01:07:59.678Z,4.60
2019-03-10T01:10:29.022Z,4.33
2019-03-10T01:12:58.550Z,5.43
2019-03-10T01:15:33.664Z,6.73
2019-03-10T01:18:03.721Z,7.47
2019-03-10T01:20:39.226Z,2.83
2019-03-10T01:23:08.582Z,4.53
2019-03-10T01:25:37.941Z,3.97
2019-03-10T01:28:07.359Z,3.93
2019-03-10T01:30:43.917Z,2.30
2019-03-10T01:33:59.354Z,3.70
2019-03-10T01:36:27.072Z,1.60
2019-03-10T01:38:56.442Z,2.20
2019-03-10T01:41:25.739Z,3.73
2019-03-10T01:43:55.081Z,0.90
2019-03-10T01:46:24.675Z,1.00
2019-03-10T01:48:54.048Z,1.20
2019-03-10T01:51:23.401Z,1.07
2019-03-10T01:53:52.790Z,1.07
2019-03-10T01:56:22.222Z,2.33
2019-03-10T01:58:54.875Z,1.37
2019-03-10T02:01:24.302Z,2.00
2019-03-10T02:03:53.927Z,1.10
2019-03-10T02:06:23.445Z,2.20
2019-03-10T02:08:52.822Z,2.20
2019-03-10T02:11:22.185Z,3.07
2019-03-10T02:13:51.552Z,2.10
2019-03-10T02:16:20.931Z,3.20
2019-03-10T02:18:50.418Z,3.50
2019-03-10T02:21:19.766Z,2.00
2019-03-10T02:23:49.072Z,5.63
2019-03-10T02:26:18.398Z,4.97
2019-03-10T02:28:47.838Z,4.03
2019-03-10T02:31:17.166Z,5.23
2019-03-10T02:33:46.468Z,6.37
2019-03-10T02:36:15.979Z,3.00
2019-03-10T02:38:45.274Z,9.73
2019-03-10T02:41:14.742Z,5.20
2019-03-10T02:43:44.212Z,6.80
2019-03-10T02:46:13.624Z,11.33
2019-03-10T02:48:43.054Z,3.70
2019-03-10T02:51:12.614Z,4.17
2019-03-10T02:53:41.995Z,13.37
2019-03-10T02:56:12.352Z,9.73
2019-03-10T02:58:41.715Z,7.53
2019-03-10T03:01:11.079Z,4.60
2019-03-10T03:03:40.454Z,8.50
2019-03-10T03:06:09.830Z,8.23
2019-03-10T03:08:39.145Z,11.27
2019-03-10T03:11:08.579Z,6.97
2019-03-10T03:13:38.024Z,13.60
2019-03-10T03:16:07.546Z,2.97
2019-03-10T03:18:36.989Z,6.90
2019-03-10T03:21:06.341Z,10.97
2019-03-10T03:23:35.801Z,4.37
2019-03-10T03:26:05.409Z,4.83
2019-03-10T03:28:34.931Z,4.63
2019-03-10T03:31:04.355Z,2.87
2019-03-10T03:33:33.783Z,7.30
2019-03-10T03:36:29.515Z,5.03
2019-03-10T03:39:11.638Z,10.23
2019-03-10T03:41:41.107Z,12.50
2019-03-10T03:44:10.576Z,9.00
2019-03-10T03:46:40.109Z,4.20
2019-03-10T03:49:09.492Z,7.33
2019-03-10T03:51:38.928Z,4.97
2019-03-10T03:54:08.367Z,8.10
2019-03-10T03:56:37.793Z,5.47
2019-03-10T03:59:07.256Z,6.90
2019-03-10T04:01:49.407Z,6.77
2019-03-10T04:04:18.823Z,5.43
2019-03-10T04:06:48.195Z,8.40
2019-03-10T04:09:17.543Z,5.23
2019-03-10T04:11:46.896Z,4.13
2019-03-10T04:14:16.279Z,5.63
2019-03-10T04:16:45.735Z,5.57
2019-03-10T04:19:15.162Z,12.27
2019-03-10T04:21:44.502Z,5.50
2019-03-10T04:24:13.810Z,12.37
2019-03-10T04:26:43.165Z,12.13
2019-03-10T04:29:12.501Z,8.87
2019-03-10T04:31:41.859Z,7.80
2019-03-10T04:34:11.204Z,8.83
2019-03-10T04:36:40.549Z,5.40
2019-03-10T04:39:09.908Z,8.77
2019-03-10T04:41:39.250Z,8.23
2019-03-10T04:44:08.565Z,5.53
2019-03-10T04:46:38.010Z,7.30
2019-03-10T04:49:07.302Z,10.33
2019-03-10T04:51:36.631Z,1.47
2019-03-10T04:54:06.059Z,5.77
2019-03-10T04:56:54.955Z,17.50
2019-03-10T04:59:24.305Z,7.43
2019-03-10T05:01:53.680Z,9.47
2019-03-10T05:04:23.144Z,8.23
2019-03-10T05:06:52.566Z,5.80
2019-03-10T05:09:21.878Z,10.83
2019-03-10T05:11:51.248Z,8.33
2019-03-10T05:14:20.716Z,10.70
2019-03-10T05:16:50.082Z,6.67
2019-03-10T05:19:19.426Z,16.30
2019-03-10T05:21:48.834Z,7.60
2019-03-10T05:24:18.225Z,6.80
2019-03-10T05:26:47.590Z,5.87
2019-03-10T05:29:16.916Z,7.93
2019-03-10T05:31:46.354Z,6.50
2019-03-10T05:34:15.851Z,4.30
2019-03-10T05:36:45.194Z,8.30
2019-03-10T05:39:14.565Z,8.50
2019-03-10T05:41:43.894Z,4.27
2019-03-10T05:44:13.257Z,6.60
2019-03-10T05:46:42.666Z,5.80
2019-03-10T05:49:12.003Z,13.53
2019-03-10T05:51:41.346Z,10.93
2019-03-10T05:54:10.694Z,6.40
2019-03-10T05:56:40.056Z,3.90
2019-03-10T05:59:09.394Z,6.50
2019-03-10T06:01:38.756Z,12.50
2019-03-10T06:04:08.117Z,8.27
2019-03-10T06:06:37.611Z,6.23
2019-03-10T06:09:07.641Z,3.63
2019-03-10T06:11:37.023Z,4.53
2019-03-10T06:14:06.397Z,8.40
2019-03-10T06:16:35.717Z,3.43
2019-03-10T06:19:05.166Z,3.83
2019-03-10T06:21:34.558Z,2.93
2019-03-10T06:24:03.971Z,7.97
2019-03-10T06:26:34.450Z,3.63
2019-03-10T06:29:03.803Z,10.33
2019-03-10T06:31:33.154Z,8.33
2019-03-10T06:34:02.594Z,5.47
2019-03-10T06:36:32.005Z,5.87
2019-03-10T06:39:01.355Z,1.23
2019-03-10T06:41:30.769Z,4.23
2019-03-10T06:44:00.141Z,5.13
2019-03-10T06:46:29.658Z,20.47
2019-03-10T06:48:58.965Z,7.30
2019-03-10T06:51:28.330Z,5.30
2019-03-10T06:53:57.672Z,9.50
2019-03-10T06:56:27.030Z,3.57
2019-03-10T06:58:56.383Z,10.47
2019-03-10T07:01:25.736Z,7.47
2019-03-10T07:03:55.179Z,5.20
2019-03-10T07:06:24.638Z,7.73
2019-03-10T07:08:53.982Z,8.00
2019-03-10T07:11:23.328Z,5.73
2019-03-10T07:13:52.699Z,3.57
2019-03-10T07:16:22.153Z,10.07
2019-03-10T07:18:51.524Z,5.03
2019-03-10T07:21:21.022Z,9.43
2019-03-10T07:23:50.395Z,7.17
2019-03-10T07:26:19.747Z,5.53
2019-03-10T07:28:54.291Z,4.77
2019-03-10T07:32:01.026Z,8.37
2019-03-10T07:34:55.537Z,4.87
2019-03-10T07:37:55.765Z,7.23
2019-03-10T07:40:44.122Z,10.00
2019-03-10T07:43:35.445Z,10.13
2019-03-10T07:46:22.618Z,8.30
2019-03-10T07:49:26.365Z,9.80
2019-03-10T07:52:23.850Z,6.80
2019-03-10T07:55:03.783Z,7.53
2019-03-10T07:57:51.797Z,6.23
2019-03-10T08:00:46.018Z,7.40
2019-03-10T08:03:43.502Z,7.37
2019-03-10T08:06:31.416Z,6.40
2019-03-10T08:09:31.974Z,5.93
2019-03-10T08:12:15.779Z,4.67
2019-03-10T08:15:16.186Z,9.50
2019-03-10T08:17:59.217Z,9.40
2019-03-10T08:20:34.401Z,8.90
2019-03-10T08:23:16.663Z,5.00
2019-03-10T08:26:03.838Z,9.63
2019-03-10T08:28:50.747Z,7.40
2019-03-10T08:31:42.318Z,5.97
2019-03-10T08:34:20.114Z,10.73
2019-03-10T08:37:11.506Z,10.60
2019-03-10T08:39:58.506Z,5.10
2019-03-10T08:43:05.066Z,9.27
2019-03-10T08:45:43.594Z,7.23
2019-03-10T08:48:43.936Z,3.43
2019-03-10T08:51:19.916Z,8.20
2019-03-10T08:54:11.241Z,12.10
2019-03-10T08:56:58.171Z,13.60
2019-03-10T08:59:33.790Z,6.50
2019-03-10T09:02:37.262Z,11.47
2019-03-10T09:05:41.030Z,4.47
2019-03-10T09:08:26.869Z,5.50
2019-03-10T09:11:02.550Z,13.27
2019-03-10T09:13:53.910Z,6.63
2019-03-10T09:16:42.253Z,5.03
2019-03-10T09:19:33.487Z,9.57
2019-03-10T09:22:20.643Z,7.40
2019-03-10T09:25:11.712Z,9.60
2019-03-10T09:27:57.637Z,5.77
2019-03-10T09:30:52.172Z,10.80
2019-03-10T09:33:33.230Z,8.27
2019-03-10T09:36:12.666Z,5.87
2019-03-10T09:38:58.483Z,2.73
2019-03-10T09:41:52.827Z,7.03
2019-03-10T09:44:37.923Z,12.67
2019-03-10T09:47:26.235Z,9.07
2019-03-10T09:50:29.605Z,15.40
2019-03-10T09:53:08.090Z,7.77
2019-03-10T09:55:56.398Z,5.43
2019-03-10T09:58:50.542Z,7.43
2019-03-10T10:01:29.374Z,12.03
2019-03-10T10:04:20.638Z,4.73
2019-03-10T10:07:12.194Z,5.70
2019-03-10T10:10:09.537Z,5.60
2019-03-10T10:12:55.362Z,6.07
2019-03-10T10:15:33.323Z,7.17
2019-03-10T10:18:20.614Z,8.80
2019-03-10T10:21:07.646Z,3.80
2019-03-10T10:24:14.464Z,2.87
2019-03-10T10:27:11.763Z,9.13
2019-03-10T10:29:48.056Z,6.40
2019-03-10T10:32:33.202Z,7.43
2019-03-10T10:35:27.601Z,8.33
2019-03-10T10:38:18.753Z,8.90
2019-03-10T10:41:03.758Z,6.97
2019-03-10T10:43:50.870Z,9.77
2019-03-10T10:46:38.313Z,16.87
2019-03-10T10:49:23.693Z,12.23
2019-03-10T10:52:15.215Z,13.90
2019-03-10T10:55:12.579Z,12.13
2019-03-10T10:58:06.858Z,9.63
2019-03-10T11:00:48.676Z,9.90
2019-03-10T11:03:43.276Z,7.90
2019-03-10T11:06:20.911Z,3.47
2019-03-10T11:09:05.114Z,6.00
2019-03-10T11:12:05.797Z,4.87
2019-03-10T11:14:45.559Z,6.10
2019-03-10T11:17:36.327Z,7.90
2019-03-10T11:20:35.745Z,8.23
2019-03-10T11:23:15.526Z,7.93
2019-03-10T11:25:59.522Z,10.33
2019-03-10T11:28:50.874Z,6.60
2019-03-10T11:31:29.354Z,6.87
2019-03-10T11:34:24.987Z,12.03
2019-03-10T11:37:06.180Z,10.83
2019-03-10T11:39:53.151Z,4.73
2019-03-10T11:42:44.483Z,6.67
2019-03-10T11:45:35.894Z,9.70
2019-03-10T11:48:17.128Z,7.33
2019-03-10T11:51:04.597Z,11.83
2019-03-10T11:53:51.588Z,22.73
2019-03-10T11:56:26.500Z,12.03
2019-03-10T11:59:05.366Z,17.77
2019-03-10T12:01:53.682Z,21.97
2019-03-10T12:04:42.096Z,14.50
2019-03-10T12:07:17.757Z,15.73
2019-03-10T12:09:47.129Z,15.30
2019-03-10T12:12:16.486Z,8.10
2019-03-10T12:14:45.937Z,8.70
2019-03-10T12:17:15.378Z,8.20
2019-03-10T12:19:44.803Z,5.23
2019-03-10T12:22:14.134Z,3.17
2019-03-10T12:24:43.568Z,8.60
2019-03-10T12:27:12.971Z,7.13
2019-03-10T12:29:42.357Z,3.17
2019-03-10T12:32:11.814Z,2.73
2019-03-10T12:34:41.138Z,10.33
2019-03-10T12:37:10.451Z,5.97
2019-03-10T12:39:39.801Z,5.73
2019-03-10T12:42:09.147Z,7.00
2019-03-10T12:44:38.530Z,5.60
2019-03-10T12:47:07.843Z,11.83
2019-03-10T12:49:37.254Z,7.57
2019-03-10T12:52:06.598Z,5.10
2019-03-10T12:54:36.075Z,7.67
2019-03-10T12:57:05.457Z,9.00
2019-03-10T12:59:37.527Z,9.70
2019-03-10T13:02:06.896Z,7.20
2019-03-10T13:04:36.236Z,25.93
2019-03-10T13:07:05.576Z,8.23
2019-03-10T13:09:35.042Z,12.93
2019-03-10T13:12:04.378Z,6.87
2019-03-10T13:14:33.721Z,6.40
2019-03-10T13:17:03.191Z,4.47
2019-03-10T13:19:32.524Z,4.53
2019-03-10T13:22:01.876Z,7.77
2019-03-10T13:24:31.451Z,9.10
2019-03-10T13:27:00.895Z,8.43
2019-03-10T13:29:30.283Z,9.93
2019-03-10T13:31:59.695Z,8.97
2019-03-10T13:34:29.056Z,5.40
2019-03-10T13:36:58.615Z,9.87
2019-03-10T13:39:28.037Z,5.47
2019-03-10T13:41:57.486Z,7.40
2019-03-10T13:44:26.851Z,4.67
2019-03-10T13:46:56.195Z,10.40
2019-03-10T13:49:25.642Z,9.23
2019-03-10T13:51:55.026Z,8.30
2019-03-10T13:54:24.365Z,7.70
2019-03-10T13:56:53.658Z,11.53
2019-03-10T13:59:23.028Z,15.03
2019-03-10T14:01:52.358Z,11.00
2019-03-10T14:04:21.700Z,7.53
2019-03-10T14:06:51.318Z,9.53
2019-03-10T14:09:20.738Z,7.17
2019-03-10T14:11:50.063Z,10.20
2019-03-10T14:14:19.369Z,4.13
2019-03-10T14:16:48.831Z,7.53
2019-03-10T14:19:18.167Z,6.60
2019-03-10T14:21:47.555Z,8.30
2019-03-10T14:24:17.895Z,9.90
2019-03-10T14:26:47.259Z,6.47
2019-03-10T14:29:16.605Z,11.40
2019-03-10T14:31:45.954Z,8.67
2019-03-10T14:34:15.331Z,10.70
2019-03-10T14:36:44.765Z,9.27
2019-03-10T14:39:14.337Z,9.93
2019-03-10T14:41:43.762Z,4.70
2019-03-10T14:44:13.418Z,8.70
2019-03-10T14:46:44.248Z,8.23
2019-03-10T14:49:22.635Z,8.50
2019-03-10T14:51:44.804Z,9.03
2019-03-10T14:54:14.250Z,9.97
2019-03-10T14:56:43.695Z,5.33
2019-03-10T14:59:13.075Z,6.50
2019-03-10T15:01:42.402Z,6.87
2019-03-10T15:04:11.869Z,7.43
2019-03-10T15:06:41.279Z,6.50
2019-03-10T15:09:11.619Z,5.53
2019-03-10T15:11:41.017Z,8.00
2019-03-10T15:14:10.439Z,7.60
2019-03-10T15:16:39.954Z,8.60
2019-03-10T15:19:09.247Z,13.13
2019-03-10T15:21:38.543Z,7.00
2019-03-10T15:24:08.051Z,18.90
2019-03-10T15:26:45.120Z,8.43
2019-03-10T15:29:08.389Z,7.67
2019-03-10T15:31:37.802Z,8.67
2019-03-10T15:34:07.134Z,6.40
2019-03-10T15:36:36.596Z,7.27
2019-03-10T15:39:07.195Z,5.53
2019-03-10T15:41:36.863Z,11.33
2019-03-10T15:44:06.238Z,11.20
2019-03-10T15:46:35.539Z,11.20
2019-03-10T15:49:04.918Z,13.83
2019-03-10T15:51:34.315Z,11.97
2019-03-10T15:54:05.786Z,9.77
2019-03-10T15:56:34.831Z,9.50
2019-03-10T15:59:04.225Z,9.43
2019-03-10T16:01:33.657Z,10.47
2019-03-10T16:04:17.247Z,9.53
2019-03-10T16:06:46.774Z,9.23
2019-03-10T16:09:16.334Z,11.07
2019-03-10T16:11:45.806Z,9.43
2019-03-10T16:14:15.146Z,9.77
2019-03-10T16:16:44.560Z,8.07
2019-03-10T16:19:14.004Z,6.00
2019-03-10T16:21:43.371Z,6.73
2019-03-10T16:24:12.838Z,10.60
2019-03-10T16:26:42.365Z,8.67
2019-03-10T16:29:11.767Z,10.90
2019-03-10T16:31:41.186Z,9.23
2019-03-10T16:34:10.696Z,10.73
2019-03-10T16:36:40.126Z,7.73
2019-03-10T16:39:10.082Z,10.37
2019-03-10T16:41:39.441Z,12.93
2019-03-10T16:44:08.782Z,16.87
2019-03-10T16:46:39.292Z,6.90
2019-03-10T16:49:08.956Z,12.17
2019-03-10T16:51:38.349Z,11.87
2019-03-10T16:54:07.719Z,10.80
2019-03-10T16:56:37.043Z,10.47
2019-03-10T16:59:06.444Z,11.03
2019-03-10T17:01:35.894Z,10.30
2019-03-10T17:04:05.279Z,9.47
2019-03-10T17:06:34.642Z,9.63
2019-03-10T17:09:16.884Z,11.67
2019-03-10T17:11:46.553Z,10.27
2019-03-10T17:14:15.934Z,9.27
2019-03-10T17:16:45.946Z,9.27
2019-03-10T17:19:15.299Z,8.07
2019-03-10T17:21:46.088Z,6.20
2019-03-10T17:24:15.454Z,9.33
2019-03-10T17:26:47.311Z,5.10
2019-03-10T17:29:19.426Z,5.80
2019-03-10T17:31:48.839Z,14.27
2019-03-10T17:34:18.432Z,4.77
2019-03-10T17:36:47.869Z,8.03
2019-03-10T17:39:17.326Z,7.40
2019-03-10T17:41:46.662Z,5.90
2019-03-10T17:44:16.019Z,9.87
2019-03-10T17:46:45.386Z,4.33
2019-03-10T17:49:15.057Z,1.80
2019-03-10T17:51:44.458Z,6.57
2019-03-10T17:54:13.871Z,20.23
2019-03-10T17:56:43.298Z,9.13
2019-03-10T17:59:12.644Z,11.87
2019-03-10T18:01:41.934Z,9.13
2019-03-10T18:04:11.462Z,9.90
2019-03-10T18:06:40.854Z,8.80
2019-03-10T18:09:10.145Z,8.67
2019-03-10T18:11:39.502Z,11.37
2019-03-10T18:14:08.913Z,13.33
2019-03-10T18:16:39.650Z,8.93
2019-03-10T18:19:09.482Z,13.97
2019-03-10T18:21:38.858Z,9.77
2019-03-10T18:24:08.182Z,13.93
2019-03-10T18:26:39.289Z,14.43
2019-03-10T18:29:08.701Z,15.83
2019-03-10T18:31:38.063Z,12.87
2019-03-10T18:34:09.056Z,13.77
2019-03-10T18:36:38.870Z,14.23
2019-03-10T18:39:08.738Z,111.83
2019-03-10T18:41:38.178Z,84.93
2019-03-10T18:44:07.618Z,49.23
2019-03-10T18:46:37.093Z,70.27
2019-03-10T18:49:06.514Z,41.13
2019-03-10T18:51:36.050Z,66.53
2019-03-10T18:54:05.594Z,28.30
2019-03-10T18:56:34.966Z,56.77
2019-03-10T18:59:04.648Z,24.97
2019-03-10T19:01:34.035Z,20.10
2019-03-10T19:04:03.363Z,24.10
2019-03-10T19:06:32.801Z,14.17
2019-03-10T19:09:02.224Z,11.33
2019-03-10T19:11:31.670Z,22.07
2019-03-10T19:14:01.131Z,16.30
2019-03-10T19:16:30.546Z,16.40
2019-03-10T19:18:59.926Z,14.63
2019-03-10T19:21:29.421Z,17.67
2019-03-10T19:23:58.766Z,21.17
2019-03-10T19:26:28.248Z,24.33
2019-03-10T19:28:57.681Z,27.37
2019-03-10T19:31:27.126Z,19.03
2019-03-10T19:33:56.529Z,26.37
2019-03-10T19:36:25.956Z,17.00
2019-03-10T19:38:55.358Z,22.27
2019-03-10T19:41:24.708Z,24.93
2019-03-10T19:43:54.142Z,28.77
2019-03-10T19:46:23.467Z,42.83
2019-03-10T19:48:52.821Z,25.17
2019-03-10T19:51:22.196Z,30.27
2019-03-10T19:53:51.686Z,27.57
2019-03-10T19:56:21.210Z,27.97
2019-03-10T19:58:50.695Z,28.33
2019-03-10T20:01:20.308Z,26.70
2019-03-10T20:03:49.703Z,31.67
2019-03-10T20:06:19.105Z,25.23
2019-03-10T20:08:48.612Z,30.80
2019-03-10T20:11:18.079Z,27.30
2019-03-10T20:13:47.525Z,21.17
2019-03-10T20:16:16.998Z,26.60
2019-03-10T20:18:46.643Z,20.27
2019-03-10T20:21:16.138Z,30.40
2019-03-10T20:23:45.562Z,22.70
2019-03-10T20:26:14.954Z,28.23
2019-03-10T20:28:44.507Z,30.77
2019-03-10T20:31:13.854Z,27.67
2019-03-10T20:33:43.319Z,28.47
2019-03-10T20:36:12.783Z,23.60
2019-03-10T20:38:42.226Z,27.70
2019-03-10T20:41:11.564Z,27.20
2019-03-10T20:43:40.938Z,29.40
2019-03-10T20:46:10.293Z,25.03
2019-03-10T20:48:39.661Z,27.83
2019-03-10T20:51:09.115Z,25.13
2019-03-10T20:53:38.527Z,26.57
2019-03-10T20:56:08.083Z,25.37
2019-03-10T20:58:37.463Z,23.30
2019-03-10T21:01:06.814Z,29.47
2019-03-10T21:03:36.335Z,24.93
2019-03-10T21:06:05.745Z,29.40
2019-03-10T21:08:35.136Z,29.47
2019-03-10T21:11:04.534Z,28.67
2019-03-10T21:13:33.923Z,25.60
2019-03-10T21:16:03.418Z,29.47
2019-03-10T21:18:32.888Z,28.87
2019-03-10T21:21:02.353Z,38.27
2019-03-10T21:23:31.784Z,35.80
2019-03-10T21:26:01.269Z,35.03
2019-03-10T21:28:30.584Z,34.50
2019-03-10T21:30:59.980Z,38.13
2019-03-10T21:33:29.399Z,37.33
2019-03-10T21:35:58.900Z,34.00
2019-03-10T21:38:28.310Z,32.13
2019-03-10T21:40:58.654Z,33.27
2019-03-10T21:43:28.023Z,35.63
2019-03-10T21:45:57.651Z,43.47
2019-03-10T21:48:27.114Z,44.93
2019-03-10T21:50:56.566Z,47.13
2019-03-10T21:53:26.185Z,42.87
2019-03-10T21:55:55.674Z,49.40
2019-03-10T21:58:25.038Z,50.40
2019-03-10T22:00:54.398Z,52.27
2019-03-10T22:03:23.786Z,52.37
2019-03-10T22:05:53.199Z,46.80
2019-03-10T22:08:22.551Z,48.20
2019-03-10T22:10:51.893Z,47.17
2019-03-10T22:13:21.279Z,46.13
2019-03-10T22:15:50.718Z,49.23
2019-03-10T22:18:20.100Z,41.30
2019-03-10T22:20:49.499Z,38.53
2019-03-10T22:23:18.854Z,42.17
2019-03-10T22:25:48.211Z,38.67
2019-03-10T22:28:17.584Z,44.50
2019-03-10T22:30:46.991Z,39.50
2019-03-10T22:33:16.418Z,37.03
2019-03-10T22:35:45.973Z,36.37
2019-03-10T22:38:15.497Z,33.27
2019-03-10T22:40:44.932Z,38.20
2019-03-10T22:43:14.290Z,37.40
2019-03-10T22:45:43.729Z,40.60
2019-03-10T22:48:13.122Z,42.97
2019-03-10T22:50:42.482Z,40.57
2019-03-10T22:53:11.809Z,42.03
2019-03-10T22:55:41.226Z,45.50
2019-03-10T22:58:10.642Z,42.77
2019-03-10T23:00:48.452Z,44.53
2019-03-10T23:03:17.943Z,46.17
2019-03-10T23:05:47.356Z,40.53
2019-03-10T23:08:16.736Z,36.97
2019-03-10T23:10:46.106Z,38.97
2019-03-10T23:13:15.588Z,37.97
2019-03-10T23:15:45.007Z,33.33
2019-03-10T23:18:14.420Z,31.87
2019-03-10T23:20:43.858Z,30.80
2019-03-10T23:23:13.314Z,25.20
2019-03-10T23:25:42.696Z,25.87
2019-03-10T23:28:12.169Z,21.87
2019-03-10T23:30:41.500Z,21.97
2019-03-10T23:33:11.378Z,19.63
2019-03-10T23:35:40.840Z,19.43
2019-03-10T23:38:10.219Z,20.13
2019-03-10T23:40:39.636Z,25.27
2019-03-10T23:43:08.982Z,16.83
2019-03-10T23:45:38.385Z,17.97
2019-03-10T23:48:07.731Z,17.87
2019-03-10T23:50:37.095Z,18.80
2019-03-10T23:53:06.383Z,21.33
2019-03-10T23:55:35.813Z,26.27
2019-03-10T23:58:05.133Z,25.63
